Cape Mail — YJTN6 — position and weather

sailwx.info

Track history (hours):
 
Tides and Currents Weather Stations Pressure Air Temp Water Temp Dewpoint Dewpoint Depression Visibility Wind Speed Wind Dir Waves Ship Positions

Cape Mail

Last reported at 2017-Dec-14 18:31 UTC. Time now 2017-Dec-15 18:15 UTC.
Position N 26°05' W 080°07'.

Length 73 m; draft 3.5 m.

Type: Cargo ship. MMSI: 577199000.

Date/timePositionNaut miles runAvg speedWind from/ knotsBaromVisibWave heightAir tempDewpointWater temp
2017-Dec-14 18:31N 26°05' W 080°07'0 0.0
2017-Dec-14 18:00N 26°05' W 080°07'0 0.0
2017-Dec-14 17:30N 26°05' W 080°07'0 0.0
2017-Dec-14 17:00N 26°05' W 080°07'0 0.0
2017-Dec-14 16:30N 26°05' W 080°07'0 0.0
2017-Dec-14 16:00N 26°05' W 080°07'0 0.0
2017-Dec-14 15:00N 26°05' W 080°07'1 2.1
2017-Dec-14 14:30N 26°06' W 080°06'4 7.0
2017-Dec-14 14:00N 26°05' W 080°02'510.3
2017-Dec-14 13:30N 26°03' W 079°57'510.3
2017-Dec-14 13:00N 26°02' W 079°51'510.1
2017-Dec-14 12:30N 26°00' W 079°46'510.2
2017-Dec-14 11:59N 25°59' W 079°40'  
2017-Dec-12 00:34N 25°59' W 079°43'210.1
2017-Dec-12 00:20N 26°00' W 079°46'3 9.7
2017-Dec-12 00:00N 26°01' W 079°49'5 9.7
2017-Dec-11 23:30N 26°03' W 079°54'5 9.6
2017-Dec-11 23:00N 26°04' W 079°59'5 9.8
2017-Dec-11 22:30N 26°05' W 080°05'3 4.2
2017-Dec-11 21:54N 26°04' W 080°07'0 0.0
2017-Dec-11 21:24N 26°04' W 080°07'0 0.0
2017-Dec-11 20:57N 26°04' W 080°07'0 0.0
2017-Dec-11 20:27N 26°04' W 080°07'0 0.0
2017-Dec-11 19:57N 26°04' W 080°07'0 0.0
2017-Dec-11 19:24N 26°04' W 080°07'0 0.0
2017-Dec-11 18:57N 26°04' W 080°07'0 0.0
2017-Dec-11 15:42N 26°04' W 080°07'2 6.5
2017-Dec-11 15:28N 26°06' W 080°07'3 6.6
2017-Dec-11 15:00N 26°05' W 080°03'5 9.2
2017-Dec-11 14:30N 26°06' W 079°58'4 8.8
2017-Dec-11 14:00N 26°07' W 079°54'4 8.5
2017-Dec-11 13:30N 26°08' W 079°49'4 9.0
2017-Dec-11 13:00N 26°08' W 079°44'4 8.7
2017-Dec-11 12:30N 26°06' W 079°40'610.4
2017-Dec-11 11:56N 26°01' W 079°36'8 9.9
2017-Dec-11 11:07N 25°56' W 079°29'  
2017-Dec-07 02:51N 26°00' W 079°46'3 9.6
2017-Dec-07 02:30N 26°01' W 079°49'5 9.1
2017-Dec-07 02:00N 26°03' W 079°54'4 8.7
2017-Dec-07 01:30N 26°04' W 079°58'5 9.4
2017-Dec-07 01:00N 26°05' W 080°03'3 6.2
2017-Dec-07 00:30N 26°05' W 080°07'1 1.3
2017-Dec-07 00:00N 26°04' W 080°07'0 0.0
2017-Dec-06 23:30N 26°04' W 080°07'0 0.0
2017-Dec-06 23:00N 26°04' W 080°07'0 0.0
2017-Dec-06 22:30N 26°04' W 080°07'0 0.0
2017-Dec-06 22:00N 26°04' W 080°07'0 0.0
2017-Dec-06 21:30N 26°04' W 080°07'0 0.0
2017-Dec-06 21:00N 26°04' W 080°07'  
Track history (hours):
 
Tides and Currents Weather Stations Pressure Air Temp Water Temp Dewpoint Dewpoint Depression Visibility Wind Speed Wind Dir Waves Ship Positions

Cape Mail

Last reported at 2017-Dec-14 18:31 UTC. Time now 2017-Dec-15 18:15 UTC.
Position N 26°05' W 080°07'.

Length 73 m; draft 3.5 m.

Type: Cargo ship. MMSI: 577199000.

Date/timePositionNaut miles runAvg speedWind from/ knotsBaromVisibWave heightAir tempDewpointWater temp
2017-Dec-14 18:31N 26°05' W 080°07'0 0.0
2017-Dec-14 18:00N 26°05' W 080°07'0 0.0
2017-Dec-14 17:30N 26°05' W 080°07'0 0.0
2017-Dec-14 17:00N 26°05' W 080°07'0 0.0
2017-Dec-14 16:30N 26°05' W 080°07'0 0.0
2017-Dec-14 16:00N 26°05' W 080°07'0 0.0
2017-Dec-14 15:00N 26°05' W 080°07'1 2.1
2017-Dec-14 14:30N 26°06' W 080°06'4 7.0
2017-Dec-14 14:00N 26°05' W 080°02'510.3
2017-Dec-14 13:30N 26°03' W 079°57'510.3
2017-Dec-14 13:00N 26°02' W 079°51'510.1
2017-Dec-14 12:30N 26°00' W 079°46'510.2
2017-Dec-14 11:59N 25°59' W 079°40'  
2017-Dec-12 00:34N 25°59' W 079°43'210.1
2017-Dec-12 00:20N 26°00' W 079°46'3 9.7
2017-Dec-12 00:00N 26°01' W 079°49'5 9.7
2017-Dec-11 23:30N 26°03' W 079°54'5 9.6
2017-Dec-11 23:00N 26°04' W 079°59'5 9.8
2017-Dec-11 22:30N 26°05' W 080°05'3 4.2
2017-Dec-11 21:54N 26°04' W 080°07'0 0.0
2017-Dec-11 21:24N 26°04' W 080°07'0 0.0
2017-Dec-11 20:57N 26°04' W 080°07'0 0.0
2017-Dec-11 20:27N 26°04' W 080°07'0 0.0
2017-Dec-11 19:57N 26°04' W 080°07'0 0.0
2017-Dec-11 19:24N 26°04' W 080°07'0 0.0
2017-Dec-11 18:57N 26°04' W 080°07'0 0.0
2017-Dec-11 15:42N 26°04' W 080°07'2 6.5
2017-Dec-11 15:28N 26°06' W 080°07'3 6.6
2017-Dec-11 15:00N 26°05' W 080°03'5 9.2
2017-Dec-11 14:30N 26°06' W 079°58'4 8.8
2017-Dec-11 14:00N 26°07' W 079°54'4 8.5
2017-Dec-11 13:30N 26°08' W 079°49'4 9.0
2017-Dec-11 13:00N 26°08' W 079°44'4 8.7
2017-Dec-11 12:30N 26°06' W 079°40'610.4
2017-Dec-11 11:56N 26°01' W 079°36'8 9.9
2017-Dec-11 11:07N 25°56' W 079°29'  
2017-Dec-07 02:51N 26°00' W 079°46'3 9.6
2017-Dec-07 02:30N 26°01' W 079°49'5 9.1
2017-Dec-07 02:00N 26°03' W 079°54'4 8.7
2017-Dec-07 01:30N 26°04' W 079°58'5 9.4
2017-Dec-07 01:00N 26°05' W 080°03'3 6.2
2017-Dec-07 00:30N 26°05' W 080°07'1 1.3
2017-Dec-07 00:00N 26°04' W 080°07'0 0.0
2017-Dec-06 23:30N 26°04' W 080°07'0 0.0
2017-Dec-06 23:00N 26°04' W 080°07'0 0.0
2017-Dec-06 22:30N 26°04' W 080°07'0 0.0
2017-Dec-06 22:00N 26°04' W 080°07'0 0.0
2017-Dec-06 21:30N 26°04' W 080°07'0 0.0
2017-Dec-06 21:00N 26°04' W 080°07'  

Dump ship's entire track history